sensor_id;sensor_type;location;lat;lon;timestamp;P1;durP1;ratioP1;P2;durP2;ratioP2
1276;SDS011;631;51.024;13.826;2023-07-13T00:01:50;14.30;;;13.60;;
1276;SDS011;631;51.024;13.826;2023-07-13T00:04:16;14.50;;;13.70;;
1276;SDS011;631;51.024;13.826;2023-07-13T00:06:44;13.63;;;13.03;;
1276;SDS011;631;51.024;13.826;2023-07-13T00:09:11;13.93;;;13.13;;
1276;SDS011;631;51.024;13.826;2023-07-13T00:11:38;13.20;;;12.50;;
1276;SDS011;631;51.024;13.826;2023-07-13T00:14:04;13.47;;;12.87;;
1276;SDS011;631;51.024;13.826;2023-07-13T00:16:30;13.73;;;12.93;;
1276;SDS011;631;51.024;13.826;2023-07-13T00:18:56;14.13;;;13.33;;
1276;SDS011;631;51.024;13.826;2023-07-13T00:21:21;13.90;;;13.20;;
1276;SDS011;631;51.024;13.826;2023-07-13T00:23:48;14.50;;;13.80;;
1276;SDS011;631;51.024;13.826;2023-07-13T00:26:14;13.80;;;13.10;;
1276;SDS011;631;51.024;13.826;2023-07-13T00:28:39;14.27;;;13.57;;
1276;SDS011;631;51.024;13.826;2023-07-13T00:31:07;14.27;;;13.30;;
1276;SDS011;631;51.024;13.826;2023-07-13T00:33:33;13.50;;;12.80;;
1276;SDS011;631;51.024;13.826;2023-07-13T00:35:58;14.47;;;13.77;;
1276;SDS011;631;51.024;13.826;2023-07-13T00:38:24;15.83;;;15.03;;
1276;SDS011;631;51.024;13.826;2023-07-13T00:40:49;18.50;;;17.40;;
1276;SDS011;631;51.024;13.826;2023-07-13T00:43:16;22.40;;;21.00;;
1276;SDS011;631;51.024;13.826;2023-07-13T00:48:14;21.80;;;20.50;;
1276;SDS011;631;51.024;13.826;2023-07-13T00:50:45;21.80;;;20.50;;
1276;SDS011;631;51.024;13.826;2023-07-13T00:53:13;21.70;;;20.50;;
1276;SDS011;631;51.024;13.826;2023-07-13T00:55:39;21.30;;;20.10;;
1276;SDS011;631;51.024;13.826;2023-07-13T00:58:05;21.30;;;20.10;;
1276;SDS011;631;51.024;13.826;2023-07-13T01:00:31;21.93;;;20.63;;
1276;SDS011;631;51.024;13.826;2023-07-13T01:03:03;21.50;;;20.10;;
1276;SDS011;631;51.024;13.826;2023-07-13T01:05:30;20.97;;;19.77;;
1276;SDS011;631;51.024;13.826;2023-07-13T01:07:57;21.17;;;19.83;;
1276;SDS011;631;51.024;13.826;2023-07-13T01:10:25;21.50;;;20.30;;
1276;SDS011;631;51.024;13.826;2023-07-13T01:12:52;20.70;;;19.40;;
1276;SDS011;631;51.024;13.826;2023-07-13T01:18:07;20.90;;;19.60;;
1276;SDS011;631;51.024;13.826;2023-07-13T01:20:39;21.33;;;19.83;;
1276;SDS011;631;51.024;13.826;2023-07-13T01:23:05;23.40;;;22.00;;
1276;SDS011;631;51.024;13.826;2023-07-13T01:25:34;20.33;;;18.93;;
1276;SDS011;631;51.024;13.826;2023-07-13T01:28:01;20.83;;;19.43;;
1276;SDS011;631;51.024;13.826;2023-07-13T01:30:28;20.27;;;18.87;;
1276;SDS011;631;51.024;13.826;2023-07-13T01:32:54;20.73;;;19.23;;
1276;SDS011;631;51.024;13.826;2023-07-13T01:35:19;20.37;;;19.07;;
1276;SDS011;631;51.024;13.826;2023-07-13T01:37:45;19.40;;;18.20;;
1276;SDS011;631;51.024;13.826;2023-07-13T01:40:11;20.30;;;18.80;;
1276;SDS011;631;51.024;13.826;2023-07-13T01:42:37;19.80;;;18.30;;
1276;SDS011;631;51.024;13.826;2023-07-13T01:45:03;19.20;;;18.00;;
1276;SDS011;631;51.024;13.826;2023-07-13T01:47:30;20.70;;;19.20;;
1276;SDS011;631;51.024;13.826;2023-07-13T01:49:56;20.53;;;19.03;;
1276;SDS011;631;51.024;13.826;2023-07-13T01:52:22;20.17;;;18.87;;
1276;SDS011;631;51.024;13.826;2023-07-13T01:54:48;20.47;;;19.17;;
1276;SDS011;631;51.024;13.826;2023-07-13T01:57:14;19.77;;;18.57;;
1276;SDS011;631;51.024;13.826;2023-07-13T01:59:39;19.47;;;18.17;;
1276;SDS011;631;51.024;13.826;2023-07-13T02:02:05;21.27;;;19.80;;
1276;SDS011;631;51.024;13.826;2023-07-13T02:04:31;19.97;;;18.77;;
1276;SDS011;631;51.024;13.826;2023-07-13T02:06:57;20.60;;;19.17;;
1276;SDS011;631;51.024;13.826;2023-07-13T02:09:23;20.20;;;18.80;;
1276;SDS011;631;51.024;13.826;2023-07-13T02:11:48;19.77;;;18.07;;
1276;SDS011;631;51.024;13.826;2023-07-13T02:14:14;21.00;;;19.40;;
1276;SDS011;631;51.024;13.826;2023-07-13T02:16:40;20.50;;;18.80;;
1276;SDS011;631;51.024;13.826;2023-07-13T02:19:06;19.80;;;18.37;;
1276;SDS011;631;51.024;13.826;2023-07-13T02:21:32;21.17;;;19.57;;
1276;SDS011;631;51.024;13.826;2023-07-13T02:23:58;20.70;;;19.33;;
1276;SDS011;631;51.024;13.826;2023-07-13T02:26:25;21.80;;;20.10;;
1276;SDS011;631;51.024;13.826;2023-07-13T02:28:51;20.47;;;19.17;;
1276;SDS011;631;51.024;13.826;2023-07-13T02:31:16;21.53;;;19.93;;
1276;SDS011;631;51.024;13.826;2023-07-13T02:33:42;20.70;;;19.10;;
1276;SDS011;631;51.024;13.826;2023-07-13T02:36:08;21.67;;;20.17;;
1276;SDS011;631;51.024;13.826;2023-07-13T02:38:35;21.87;;;20.37;;
1276;SDS011;631;51.024;13.826;2023-07-13T02:41:02;21.53;;;20.10;;
1276;SDS011;631;51.024;13.826;2023-07-13T02:43:28;21.13;;;19.63;;
1276;SDS011;631;51.024;13.826;2023-07-13T02:45:54;20.63;;;19.23;;
1276;SDS011;631;51.024;13.826;2023-07-13T02:48:20;20.47;;;19.10;;
1276;SDS011;631;51.024;13.826;2023-07-13T02:50:46;21.50;;;19.90;;
1276;SDS011;631;51.024;13.826;2023-07-13T02:53:11;22.07;;;20.53;;
1276;SDS011;631;51.024;13.826;2023-07-13T02:55:37;21.70;;;20.10;;
1276;SDS011;631;51.024;13.826;2023-07-13T02:58:03;21.13;;;19.63;;
1276;SDS011;631;51.024;13.826;2023-07-13T03:00:29;21.27;;;19.77;;
1276;SDS011;631;51.024;13.826;2023-07-13T03:02:54;22.00;;;20.40;;
1276;SDS011;631;51.024;13.826;2023-07-13T03:05:23;21.53;;;19.77;;
1276;SDS011;631;51.024;13.826;2023-07-13T03:07:48;20.83;;;19.47;;
1276;SDS011;631;51.024;13.826;2023-07-13T03:10:14;20.87;;;19.37;;
1276;SDS011;631;51.024;13.826;2023-07-13T03:12:41;20.93;;;19.50;;
1276;SDS011;631;51.024;13.826;2023-07-13T03:15:06;20.80;;;19.40;;
1276;SDS011;631;51.024;13.826;2023-07-13T03:17:32;21.30;;;19.80;;
1276;SDS011;631;51.024;13.826;2023-07-13T03:19:58;21.17;;;19.67;;
1276;SDS011;631;51.024;13.826;2023-07-13T03:22:24;20.80;;;19.50;;
1276;SDS011;631;51.024;13.826;2023-07-13T03:24:49;20.30;;;18.80;;
1276;SDS011;631;51.024;13.826;2023-07-13T03:27:16;20.40;;;19.03;;
1276;SDS011;631;51.024;13.826;2023-07-13T03:29:43;20.23;;;18.87;;
1276;SDS011;631;51.024;13.826;2023-07-13T03:32:09;19.50;;;18.10;;
1276;SDS011;631;51.024;13.826;2023-07-13T03:34:34;19.87;;;18.67;;
1276;SDS011;631;51.024;13.826;2023-07-13T03:37:00;20.37;;;18.97;;
1276;SDS011;631;51.024;13.826;2023-07-13T03:39:26;20.03;;;18.60;;
1276;SDS011;631;51.024;13.826;2023-07-13T03:41:51;19.80;;;18.53;;
1276;SDS011;631;51.024;13.826;2023-07-13T03:44:18;20.10;;;18.73;;
1276;SDS011;631;51.024;13.826;2023-07-13T03:46:44;19.50;;;18.20;;
1276;SDS011;631;51.024;13.826;2023-07-13T03:49:10;19.73;;;18.43;;
1276;SDS011;631;51.024;13.826;2023-07-13T03:51:36;20.30;;;18.70;;
1276;SDS011;631;51.024;13.826;2023-07-13T03:54:01;18.60;;;17.40;;
1276;SDS011;631;51.024;13.826;2023-07-13T03:56:27;18.23;;;17.00;;
1276;SDS011;631;51.024;13.826;2023-07-13T03:58:55;18.97;;;17.57;;
1276;SDS011;631;51.024;13.826;2023-07-13T04:01:21;18.50;;;17.20;;
1276;SDS011;631;51.024;13.826;2023-07-13T04:03:47;19.03;;;17.63;;
1276;SDS011;631;51.024;13.826;2023-07-13T04:06:18;18.20;;;17.00;;
1276;SDS011;631;51.024;13.826;2023-07-13T04:08:46;19.07;;;17.77;;
1276;SDS011;631;51.024;13.826;2023-07-13T04:11:17;18.50;;;17.40;;
1276;SDS011;631;51.024;13.826;2023-07-13T04:13:44;17.93;;;16.73;;
1276;SDS011;631;51.024;13.826;2023-07-13T04:16:10;18.80;;;17.50;;
1276;SDS011;631;51.024;13.826;2023-07-13T04:18:36;17.53;;;16.17;;
1276;SDS011;631;51.024;13.826;2023-07-13T04:21:02;18.20;;;16.90;;
1276;SDS011;631;51.024;13.826;2023-07-13T04:23:28;17.57;;;16.40;;
1276;SDS011;631;51.024;13.826;2023-07-13T04:25:53;18.40;;;17.17;;
1276;SDS011;631;51.024;13.826;2023-07-13T04:28:23;18.33;;;17.03;;
1276;SDS011;631;51.024;13.826;2023-07-13T04:30:49;17.20;;;16.03;;
1276;SDS011;631;51.024;13.826;2023-07-13T04:33:15;18.13;;;16.83;;
1276;SDS011;631;51.024;13.826;2023-07-13T04:35:51;16.80;;;15.70;;
1276;SDS011;631;51.024;13.826;2023-07-13T04:38:25;17.37;;;16.10;;
1276;SDS011;631;51.024;13.826;2023-07-13T04:40:57;17.73;;;16.60;;
1276;SDS011;631;51.024;13.826;2023-07-13T04:43:26;17.43;;;16.33;;
1276;SDS011;631;51.024;13.826;2023-07-13T04:45:53;17.03;;;15.93;;
1276;SDS011;631;51.024;13.826;2023-07-13T04:48:19;18.77;;;17.33;;
1276;SDS011;631;51.024;13.826;2023-07-13T04:50:45;18.03;;;16.80;;
1276;SDS011;631;51.024;13.826;2023-07-13T04:53:11;17.20;;;16.20;;
1276;SDS011;631;51.024;13.826;2023-07-13T04:55:37;17.60;;;16.50;;
1276;SDS011;631;51.024;13.826;2023-07-13T04:58:03;18.10;;;16.93;;
1276;SDS011;631;51.024;13.826;2023-07-13T05:00:30;17.80;;;16.70;;
1276;SDS011;631;51.024;13.826;2023-07-13T05:02:56;18.27;;;17.17;;
1276;SDS011;631;51.024;13.826;2023-07-13T05:05:23;17.90;;;16.87;;
1276;SDS011;631;51.024;13.826;2023-07-13T05:07:50;16.27;;;15.37;;
1276;SDS011;631;51.024;13.826;2023-07-13T05:10:16;17.70;;;16.50;;
1276;SDS011;631;51.024;13.826;2023-07-13T05:12:42;17.67;;;16.37;;
1276;SDS011;631;51.024;13.826;2023-07-13T05:15:10;18.50;;;17.40;;
1276;SDS011;631;51.024;13.826;2023-07-13T05:17:36;17.53;;;16.40;;
1276;SDS011;631;51.024;13.826;2023-07-13T05:20:04;17.93;;;16.80;;
1276;SDS011;631;51.024;13.826;2023-07-13T05:22:30;17.90;;;16.53;;
1276;SDS011;631;51.024;13.826;2023-07-13T05:24:56;18.40;;;17.20;;
1276;SDS011;631;51.024;13.826;2023-07-13T05:27:22;17.63;;;16.50;;
1276;SDS011;631;51.024;13.826;2023-07-13T05:29:48;18.40;;;17.30;;
1276;SDS011;631;51.024;13.826;2023-07-13T05:32:14;18.60;;;17.40;;
1276;SDS011;631;51.024;13.826;2023-07-13T05:34:40;18.60;;;17.30;;
1276;SDS011;631;51.024;13.826;2023-07-13T05:37:06;18.47;;;17.37;;
1276;SDS011;631;51.024;13.826;2023-07-13T05:39:32;18.53;;;17.43;;
1276;SDS011;631;51.024;13.826;2023-07-13T05:41:58;18.20;;;17.10;;
1276;SDS011;631;51.024;13.826;2023-07-13T05:44:23;18.50;;;17.20;;
1276;SDS011;631;51.024;13.826;2023-07-13T05:46:49;18.03;;;16.93;;
1276;SDS011;631;51.024;13.826;2023-07-13T05:49:15;18.80;;;17.60;;
1276;SDS011;631;51.024;13.826;2023-07-13T05:51:40;18.37;;;16.67;;
1276;SDS011;631;51.024;13.826;2023-07-13T05:54:06;17.87;;;16.77;;
1276;SDS011;631;51.024;13.826;2023-07-13T05:56:31;18.73;;;17.47;;
1276;SDS011;631;51.024;13.826;2023-07-13T05:58:57;18.13;;;17.03;;
1276;SDS011;631;51.024;13.826;2023-07-13T06:01:22;17.93;;;16.70;;
1276;SDS011;631;51.024;13.826;2023-07-13T06:03:48;19.23;;;17.90;;
1276;SDS011;631;51.024;13.826;2023-07-13T06:06:14;18.70;;;17.40;;
1276;SDS011;631;51.024;13.826;2023-07-13T06:08:41;18.50;;;17.40;;
1276;SDS011;631;51.024;13.826;2023-07-13T06:11:17;19.20;;;17.97;;
1276;SDS011;631;51.024;13.826;2023-07-13T06:13:44;20.00;;;18.63;;
1276;SDS011;631;51.024;13.826;2023-07-13T06:16:10;18.27;;;17.10;;
1276;SDS011;631;51.024;13.826;2023-07-13T06:18:36;19.07;;;17.80;;
1276;SDS011;631;51.024;13.826;2023-07-13T06:21:06;18.87;;;17.77;;
1276;SDS011;631;51.024;13.826;2023-07-13T06:23:36;19.93;;;18.63;;
1276;SDS011;631;51.024;13.826;2023-07-13T06:26:02;19.60;;;18.40;;
1276;SDS011;631;51.024;13.826;2023-07-13T06:28:28;20.20;;;18.90;;
1276;SDS011;631;51.024;13.826;2023-07-13T06:30:56;20.43;;;18.97;;
1276;SDS011;631;51.024;13.826;2023-07-13T06:33:22;20.40;;;19.10;;
1276;SDS011;631;51.024;13.826;2023-07-13T06:35:48;19.40;;;18.20;;
1276;SDS011;631;51.024;13.826;2023-07-13T06:38:14;20.60;;;19.20;;
1276;SDS011;631;51.024;13.826;2023-07-13T06:40:39;20.50;;;19.20;;
1276;SDS011;631;51.024;13.826;2023-07-13T06:43:06;20.97;;;19.67;;
1276;SDS011;631;51.024;13.826;2023-07-13T06:45:35;20.57;;;19.17;;
1276;SDS011;631;51.024;13.826;2023-07-13T06:48:05;20.60;;;19.20;;
1276;SDS011;631;51.024;13.826;2023-07-13T06:50:30;19.77;;;18.37;;
1276;SDS011;631;51.024;13.826;2023-07-13T06:52:56;19.60;;;18.40;;
1276;SDS011;631;51.024;13.826;2023-07-13T06:55:22;19.07;;;17.97;;
1276;SDS011;631;51.024;13.826;2023-07-13T06:57:47;20.50;;;19.03;;
1276;SDS011;631;51.024;13.826;2023-07-13T07:00:13;18.83;;;17.70;;
1276;SDS011;631;51.024;13.826;2023-07-13T07:02:39;18.73;;;17.53;;
1276;SDS011;631;51.024;13.826;2023-07-13T07:05:05;18.40;;;17.30;;
1276;SDS011;631;51.024;13.826;2023-07-13T07:07:30;18.60;;;17.37;;
1276;SDS011;631;51.024;13.826;2023-07-13T07:09:56;17.77;;;16.77;;
1276;SDS011;631;51.024;13.826;2023-07-13T07:12:22;17.73;;;16.47;;
1276;SDS011;631;51.024;13.826;2023-07-13T07:14:47;17.53;;;16.50;;
1276;SDS011;631;51.024;13.826;2023-07-13T07:17:13;18.43;;;17.13;;
1276;SDS011;631;51.024;13.826;2023-07-13T07:19:38;16.67;;;15.77;;
1276;SDS011;631;51.024;13.826;2023-07-13T07:22:05;16.40;;;15.50;;
1276;SDS011;631;51.024;13.826;2023-07-13T07:24:31;17.13;;;16.03;;
1276;SDS011;631;51.024;13.826;2023-07-13T07:26:56;17.07;;;15.87;;
1276;SDS011;631;51.024;13.826;2023-07-13T07:29:22;16.70;;;15.70;;
1276;SDS011;631;51.024;13.826;2023-07-13T07:31:50;17.13;;;16.13;;
1276;SDS011;631;51.024;13.826;2023-07-13T07:34:15;16.77;;;15.87;;
1276;SDS011;631;51.024;13.826;2023-07-13T07:36:41;16.80;;;15.80;;
1276;SDS011;631;51.024;13.826;2023-07-13T07:39:06;16.17;;;15.17;;
1276;SDS011;631;51.024;13.826;2023-07-13T07:41:32;16.70;;;15.80;;
1276;SDS011;631;51.024;13.826;2023-07-13T07:43:57;16.50;;;15.30;;
1276;SDS011;631;51.024;13.826;2023-07-13T07:46:23;15.53;;;14.70;;
1276;SDS011;631;51.024;13.826;2023-07-13T07:48:49;15.97;;;15.07;;
1276;SDS011;631;51.024;13.826;2023-07-13T07:51:14;15.70;;;14.90;;
1276;SDS011;631;51.024;13.826;2023-07-13T07:53:40;15.70;;;14.80;;
1276;SDS011;631;51.024;13.826;2023-07-13T07:56:07;15.50;;;14.70;;
1276;SDS011;631;51.024;13.826;2023-07-13T07:58:33;15.87;;;15.07;;
1276;SDS011;631;51.024;13.826;2023-07-13T08:01:02;15.57;;;14.57;;
1276;SDS011;631;51.024;13.826;2023-07-13T08:03:29;16.13;;;14.93;;
1276;SDS011;631;51.024;13.826;2023-07-13T08:05:55;15.60;;;14.70;;
1276;SDS011;631;51.024;13.826;2023-07-13T08:08:20;15.90;;;15.10;;
1276;SDS011;631;51.024;13.826;2023-07-13T08:10:46;15.10;;;14.23;;
1276;SDS011;631;51.024;13.826;2023-07-13T08:13:11;14.87;;;14.17;;
1276;SDS011;631;51.024;13.826;2023-07-13T08:15:37;15.87;;;15.07;;
1276;SDS011;631;51.024;13.826;2023-07-13T08:18:02;15.67;;;14.77;;
1276;SDS011;631;51.024;13.826;2023-07-13T08:20:28;15.23;;;14.43;;
1276;SDS011;631;51.024;13.826;2023-07-13T08:22:54;15.17;;;14.27;;
1276;SDS011;631;51.024;13.826;2023-07-13T08:25:20;14.33;;;13.70;;
1276;SDS011;631;51.024;13.826;2023-07-13T08:27:46;14.50;;;13.80;;
1276;SDS011;631;51.024;13.826;2023-07-13T08:30:12;14.00;;;13.30;;
1276;SDS011;631;51.024;13.826;2023-07-13T08:32:38;14.77;;;13.97;;
1276;SDS011;631;51.024;13.826;2023-07-13T08:35:04;14.60;;;13.90;;
1276;SDS011;631;51.024;13.826;2023-07-13T08:37:30;14.70;;;13.70;;
1276;SDS011;631;51.024;13.826;2023-07-13T08:39:56;14.30;;;13.60;;
1276;SDS011;631;51.024;13.826;2023-07-13T08:45:17;15.10;;;14.30;;
1276;SDS011;631;51.024;13.826;2023-07-13T08:47:54;14.77;;;13.77;;
1276;SDS011;631;51.024;13.826;2023-07-13T08:50:28;14.27;;;13.47;;
1276;SDS011;631;51.024;13.826;2023-07-13T08:52:59;14.80;;;14.10;;
1276;SDS011;631;51.024;13.826;2023-07-13T08:55:29;13.63;;;12.93;;
1276;SDS011;631;51.024;13.826;2023-07-13T09:03:42;15.47;;;14.67;;
1276;SDS011;631;51.024;13.826;2023-07-13T09:06:23;15.07;;;14.27;;
1276;SDS011;631;51.024;13.826;2023-07-13T09:09:20;15.23;;;14.30;;
1276;SDS011;631;51.024;13.826;2023-07-13T09:12:02;14.70;;;14.00;;
1276;SDS011;631;51.024;13.826;2023-07-13T09:14:41;15.10;;;14.40;;
1276;SDS011;631;51.024;13.826;2023-07-13T09:17:55;14.07;;;13.40;;
1276;SDS011;631;51.024;13.826;2023-07-13T09:20:19;14.37;;;13.57;;
1276;SDS011;631;51.024;13.826;2023-07-13T09:22:53;13.87;;;13.17;;
1276;SDS011;631;51.024;13.826;2023-07-13T09:27:48;14.10;;;13.30;;
1276;SDS011;631;51.024;13.826;2023-07-13T09:32:46;13.90;;;13.20;;
1276;SDS011;631;51.024;13.826;2023-07-13T09:35:17;14.97;;;14.20;;
1276;SDS011;631;51.024;13.826;2023-07-13T09:37:46;14.43;;;13.53;;
1276;SDS011;631;51.024;13.826;2023-07-13T09:40:23;14.33;;;13.53;;
1276;SDS011;631;51.024;13.826;2023-07-13T09:42:55;14.03;;;13.37;;
1276;SDS011;631;51.024;13.826;2023-07-13T09:45:27;13.70;;;13.00;;
1276;SDS011;631;51.024;13.826;2023-07-13T09:48:15;14.53;;;13.83;;
1276;SDS011;631;51.024;13.826;2023-07-13T09:50:41;13.77;;;13.17;;
1276;SDS011;631;51.024;13.826;2023-07-13T09:53:11;14.70;;;14.00;;
1276;SDS011;631;51.024;13.826;2023-07-13T09:55:42;14.10;;;13.30;;
1276;SDS011;631;51.024;13.826;2023-07-13T10:00:37;14.27;;;13.57;;
1276;SDS011;631;51.024;13.826;2023-07-13T10:03:16;13.40;;;12.80;;
1276;SDS011;631;51.024;13.826;2023-07-13T10:05:48;13.10;;;12.50;;
1276;SDS011;631;51.024;13.826;2023-07-13T10:08:20;14.37;;;13.27;;
1276;SDS011;631;51.024;13.826;2023-07-13T10:10:46;12.70;;;12.10;;
1276;SDS011;631;51.024;13.826;2023-07-13T10:13:31;13.23;;;12.60;;
1276;SDS011;631;51.024;13.826;2023-07-13T10:16:01;13.40;;;12.60;;
1276;SDS011;631;51.024;13.826;2023-07-13T10:18:38;13.27;;;12.57;;
1276;SDS011;631;51.024;13.826;2023-07-13T10:21:14;13.40;;;12.70;;
1276;SDS011;631;51.024;13.826;2023-07-13T10:23:43;13.37;;;12.67;;
1276;SDS011;631;51.024;13.826;2023-07-13T10:26:14;13.63;;;12.83;;
1276;SDS011;631;51.024;13.826;2023-07-13T10:28:43;13.30;;;12.70;;
1276;SDS011;631;51.024;13.826;2023-07-13T10:31:13;12.93;;;12.33;;
1276;SDS011;631;51.024;13.826;2023-07-13T10:33:40;13.97;;;13.27;;
1276;SDS011;631;51.024;13.826;2023-07-13T10:38:50;13.63;;;12.90;;
1276;SDS011;631;51.024;13.826;2023-07-13T10:41:18;14.20;;;13.50;;
1276;SDS011;631;51.024;13.826;2023-07-13T10:43:51;12.83;;;12.23;;
1276;SDS011;631;51.024;13.826;2023-07-13T10:46:20;13.63;;;12.93;;
1276;SDS011;631;51.024;13.826;2023-07-13T10:48:52;13.77;;;12.97;;
1276;SDS011;631;51.024;13.826;2023-07-13T10:51:22;13.27;;;12.60;;
1276;SDS011;631;51.024;13.826;2023-07-13T10:54:10;13.40;;;12.80;;
1276;SDS011;631;51.024;13.826;2023-07-13T10:56:48;13.90;;;13.30;;
1276;SDS011;631;51.024;13.826;2023-07-13T10:59:17;14.10;;;13.30;;
1276;SDS011;631;51.024;13.826;2023-07-13T11:01:55;13.23;;;12.53;;
1276;SDS011;631;51.024;13.826;2023-07-13T11:04:27;13.00;;;12.40;;
1276;SDS011;631;51.024;13.826;2023-07-13T11:07:10;12.80;;;12.30;;
1276;SDS011;631;51.024;13.826;2023-07-13T11:09:43;12.07;;;11.50;;
1276;SDS011;631;51.024;13.826;2023-07-13T11:15:05;11.60;;;11.03;;
1276;SDS011;631;51.024;13.826;2023-07-13T11:17:34;11.80;;;11.30;;
1276;SDS011;631;51.024;13.826;2023-07-13T11:27:52;11.87;;;11.27;;
1276;SDS011;631;51.024;13.826;2023-07-13T11:39:00;11.50;;;10.90;;
1276;SDS011;631;51.024;13.826;2023-07-13T11:41:37;11.63;;;10.90;;
1276;SDS011;631;51.024;13.826;2023-07-13T11:44:12;11.03;;;10.63;;
1276;SDS011;631;51.024;13.826;2023-07-13T11:46:39;11.93;;;11.40;;
1276;SDS011;631;51.024;13.826;2023-07-13T11:49:18;12.30;;;11.80;;
1276;SDS011;631;51.024;13.826;2023-07-13T11:51:44;11.57;;;11.07;;
1276;SDS011;631;51.024;13.826;2023-07-13T11:54:27;11.30;;;10.80;;
1276;SDS011;631;51.024;13.826;2023-07-13T11:57:20;11.83;;;11.30;;
1276;SDS011;631;51.024;13.826;2023-07-13T11:59:54;12.97;;;12.27;;
1276;SDS011;631;51.024;13.826;2023-07-13T12:02:25;11.90;;;11.40;;
1276;SDS011;631;51.024;13.826;2023-07-13T12:04:57;11.73;;;11.13;;
1276;SDS011;631;51.024;13.826;2023-07-13T12:07:27;12.73;;;12.20;;
1276;SDS011;631;51.024;13.826;2023-07-13T12:10:40;12.57;;;12.07;;
1276;SDS011;631;51.024;13.826;2023-07-13T12:12:53;11.47;;;10.87;;
1276;SDS011;631;51.024;13.826;2023-07-13T12:15:24;11.80;;;11.20;;
1276;SDS011;631;51.024;13.826;2023-07-13T12:18:15;12.77;;;12.17;;
1276;SDS011;631;51.024;13.826;2023-07-13T12:20:45;12.40;;;11.80;;
1276;SDS011;631;51.024;13.826;2023-07-13T12:23:23;11.83;;;11.27;;
1276;SDS011;631;51.024;13.826;2023-07-13T12:25:58;10.50;;;10.10;;
1276;SDS011;631;51.024;13.826;2023-07-13T12:28:33;10.90;;;10.33;;
1276;SDS011;631;51.024;13.826;2023-07-13T12:31:02;12.17;;;11.63;;
1276;SDS011;631;51.024;13.826;2023-07-13T12:33:32;13.00;;;11.90;;
1276;SDS011;631;51.024;13.826;2023-07-13T12:36:02;12.20;;;11.70;;
1276;SDS011;631;51.024;13.826;2023-07-13T12:38:31;12.77;;;12.17;;
1276;SDS011;631;51.024;13.826;2023-07-13T12:40:57;12.53;;;12.03;;
1276;SDS011;631;51.024;13.826;2023-07-13T12:43:23;12.43;;;11.83;;
1276;SDS011;631;51.024;13.826;2023-07-13T12:46:00;11.63;;;10.90;;
1276;SDS011;631;51.024;13.826;2023-07-13T12:48:28;11.90;;;11.40;;
1276;SDS011;631;51.024;13.826;2023-07-13T12:50:54;12.30;;;11.67;;
1276;SDS011;631;51.024;13.826;2023-07-13T12:53:28;12.50;;;11.87;;
1276;SDS011;631;51.024;13.826;2023-07-13T12:55:59;12.93;;;11.90;;
1276;SDS011;631;51.024;13.826;2023-07-13T12:58:29;12.57;;;11.97;;
1276;SDS011;631;51.024;13.826;2023-07-13T13:00:57;11.60;;;11.10;;
1276;SDS011;631;51.024;13.826;2023-07-13T13:03:36;11.20;;;10.60;;
1276;SDS011;631;51.024;13.826;2023-07-13T13:06:20;12.40;;;11.80;;
1276;SDS011;631;51.024;13.826;2023-07-13T13:08:51;11.80;;;11.30;;
1276;SDS011;631;51.024;13.826;2023-07-13T13:11:19;12.20;;;11.70;;
1276;SDS011;631;51.024;13.826;2023-07-13T13:13:46;12.13;;;11.50;;
1276;SDS011;631;51.024;13.826;2023-07-13T13:18:44;11.67;;;11.17;;
1276;SDS011;631;51.024;13.826;2023-07-13T13:21:10;11.53;;;10.87;;
1276;SDS011;631;51.024;13.826;2023-07-13T13:23:36;11.87;;;11.17;;
1276;SDS011;631;51.024;13.826;2023-07-13T13:26:02;11.23;;;10.73;;
1276;SDS011;631;51.024;13.826;2023-07-13T13:28:28;11.07;;;10.57;;
1276;SDS011;631;51.024;13.826;2023-07-13T13:30:54;11.30;;;10.80;;
1276;SDS011;631;51.024;13.826;2023-07-13T13:33:20;11.47;;;10.97;;
1276;SDS011;631;51.024;13.826;2023-07-13T13:35:47;11.90;;;11.20;;
1276;SDS011;631;51.024;13.826;2023-07-13T13:38:13;11.77;;;11.27;;
1276;SDS011;631;51.024;13.826;2023-07-13T13:40:41;11.67;;;10.87;;
1276;SDS011;631;51.024;13.826;2023-07-13T13:43:13;11.50;;;10.90;;
1276;SDS011;631;51.024;13.826;2023-07-13T13:45:40;12.00;;;11.40;;
1276;SDS011;631;51.024;13.826;2023-07-13T13:48:07;11.53;;;11.13;;
1276;SDS011;631;51.024;13.826;2023-07-13T13:50:38;11.40;;;10.90;;
1276;SDS011;631;51.024;13.826;2023-07-13T13:53:07;10.90;;;10.40;;
1276;SDS011;631;51.024;13.826;2023-07-13T13:55:37;11.40;;;10.90;;
1276;SDS011;631;51.024;13.826;2023-07-13T13:58:03;11.40;;;11.00;;
1276;SDS011;631;51.024;13.826;2023-07-13T14:00:29;10.90;;;10.30;;
1276;SDS011;631;51.024;13.826;2023-07-13T14:02:55;11.53;;;11.03;;
1276;SDS011;631;51.024;13.826;2023-07-13T14:05:23;11.13;;;10.60;;
1276;SDS011;631;51.024;13.826;2023-07-13T14:07:53;11.00;;;10.50;;
1276;SDS011;631;51.024;13.826;2023-07-13T14:10:20;11.03;;;10.53;;
1276;SDS011;631;51.024;13.826;2023-07-13T14:12:46;10.67;;;10.17;;
1276;SDS011;631;51.024;13.826;2023-07-13T14:15:24;12.10;;;11.40;;
1276;SDS011;631;51.024;13.826;2023-07-13T14:17:55;11.57;;;10.93;;
1276;SDS011;631;51.024;13.826;2023-07-13T14:20:23;11.80;;;11.30;;
1276;SDS011;631;51.024;13.826;2023-07-13T14:22:50;11.70;;;11.20;;
1276;SDS011;631;51.024;13.826;2023-07-13T14:25:20;11.70;;;11.20;;
1276;SDS011;631;51.024;13.826;2023-07-13T14:27:48;12.60;;;12.10;;
1276;SDS011;631;51.024;13.826;2023-07-13T14:30:19;11.90;;;11.30;;
1276;SDS011;631;51.024;13.826;2023-07-13T14:32:46;11.80;;;11.00;;
1276;SDS011;631;51.024;13.826;2023-07-13T14:35:14;11.60;;;11.10;;
1276;SDS011;631;51.024;13.826;2023-07-13T14:37:41;12.20;;;11.50;;
1276;SDS011;631;51.024;13.826;2023-07-13T14:40:12;11.83;;;11.33;;
1276;SDS011;631;51.024;13.826;2023-07-13T14:42:51;11.70;;;11.20;;
1276;SDS011;631;51.024;13.826;2023-07-13T14:45:17;12.50;;;11.90;;
1276;SDS011;631;51.024;13.826;2023-07-13T14:47:44;12.60;;;12.00;;
1276;SDS011;631;51.024;13.826;2023-07-13T14:50:15;11.57;;;10.80;;
1276;SDS011;631;51.024;13.826;2023-07-13T14:52:42;11.40;;;10.90;;
1276;SDS011;631;51.024;13.826;2023-07-13T14:55:16;12.00;;;11.50;;
1276;SDS011;631;51.024;13.826;2023-07-13T14:57:43;11.60;;;11.10;;
1276;SDS011;631;51.024;13.826;2023-07-13T15:00:13;12.30;;;11.70;;
1276;SDS011;631;51.024;13.826;2023-07-13T15:03:00;12.07;;;11.57;;
1276;SDS011;631;51.024;13.826;2023-07-13T15:05:27;12.07;;;11.47;;
1276;SDS011;631;51.024;13.826;2023-07-13T15:07:57;11.70;;;11.20;;
1276;SDS011;631;51.024;13.826;2023-07-13T15:10:26;11.13;;;10.57;;
1276;SDS011;631;51.024;13.826;2023-07-13T15:13:00;12.40;;;11.57;;
1276;SDS011;631;51.024;13.826;2023-07-13T15:15:40;12.83;;;12.20;;
1276;SDS011;631;51.024;13.826;2023-07-13T15:18:11;12.53;;;11.83;;
1276;SDS011;631;51.024;13.826;2023-07-13T15:20:37;12.10;;;11.50;;
1276;SDS011;631;51.024;13.826;2023-07-13T15:23:03;11.77;;;11.17;;
1276;SDS011;631;51.024;13.826;2023-07-13T15:25:30;12.03;;;11.43;;
1276;SDS011;631;51.024;13.826;2023-07-13T15:27:58;11.80;;;11.30;;
1276;SDS011;631;51.024;13.826;2023-07-13T15:30:31;12.27;;;11.63;;
1276;SDS011;631;51.024;13.826;2023-07-13T15:33:09;11.57;;;11.07;;
1276;SDS011;631;51.024;13.826;2023-07-13T15:35:36;12.20;;;11.60;;
1276;SDS011;631;51.024;13.826;2023-07-13T15:38:05;11.80;;;11.20;;
1276;SDS011;631;51.024;13.826;2023-07-13T15:40:39;11.60;;;11.00;;
1276;SDS011;631;51.024;13.826;2023-07-13T15:43:09;11.20;;;10.67;;